Airfield :
LOGIN :

Register | Disclaimer

   EN    FR    IT 

 










Legend :    VFR   Marginal VFR   IFR   Intensive IFR   Very Intensive IFR
Visi :
Ceiling :
>= 8 km
>= 3000ft
5 to 8 km
1000 to 3000 ft
1500m to 5 km
500 to 1000 ft
800 to 1500m
200 to 500 ft
< 800m
< 200 ft
Symbols :   Thunderstorms  Fog  Heavy snow  Heavy precipitations  Wind > 20 kt
SIGMETs :     Misc.  Thunderstorms  Icing  Turbulence  Mountain Waves  Volcanic Ashes






- Airport Elevation : 157 ft
- IATA code : LIL


LFQQ - Lille Lesquin

CURRENT METAR :
  • 070630Z AUTO 29004KT 240V350 CAVOK 15/11 Q1021 NOSIG

EXPIRED METARs :
  • 070600Z AUTO 26004KT 230V290 CAVOK 13/11 Q1021 TEMPO BKN007
  • 070530Z AUTO 23004KT CAVOK 12/12 Q1021 TEMPO BKN007
  • 070500Z AUTO 25003KT CAVOK 11/11 Q1022 TEMPO 0500 FG
  • 070430Z AUTO 20001KT 9999 0550 R26/1000U R08/P5000 BCFG NSC 11/10 Q1021 TEMPO 0500 FG
  • 070400Z AUTO VRB02KT 6000 0650 R26/1000D R08/P5000 BCFG NSC 10/10 Q1021 TEMPO 0500 FG

TAF TAF LFQQ
Valid from the 07 at 06:00 until the 08 at 12:00 UTC


070500Z 0706/0812 VRB02KT 9999 SCT040
PROB30 0706/0707 BKN007
BECMG 0708/0711 28010KT
BECMG 0801/0804 22007KT BKN013 OVC030
TEMPO 0804/0812 3000 RADZ OVC007
ATIS : +33 3 20 16 19 54



MET'MAP, your aeronautical weather chart ! - Copyright ORBIFLY December 2007 - Disclaimer

ORBIFLY MET'MAP TEAM :

Programming & Development : Alexandra Zaïnal
Concept & original design : Baudouin d'Aumeries
Assistance for programming : Marc-Olivier Méhu
Technical & hardware support : Manuel Goepfert

Contact : metmap@orbifly.com




SOURCES & CREDITS :

   NOAA